This is the latest recevied weather packets stored in our database for station/object AC5CM. If no packets are shown the sender has not sent any weather packets the latest 10 day(s).
| Time | Temp. | Humidity | Pressure | Rain* | Wind** | Luminosity | Snow |
|---|---|---|---|---|---|---|---|
| 1777505869 | 27.78° C | 72% | 1010 hPa | 0 mm | - | - | - |
| 1777505565 | 27.78° C | 72% | 1009.9 hPa | 0 mm | - | - | - |
| 1777505262 | 27.78° C | 73% | 1010 hPa | 0 mm | - | - | - |
| 1777502234 | 28.89° C | 69% | 1010.4 hPa | 0 mm | - | - | - |
| 1777501931 | 29.44° C | 67% | 1010.4 hPa | 0 mm | - | - | - |
| 1777501325 | 29.44° C | 69% | 1010.5 hPa | 0 mm | - | - | - |
| 1777500722 | 28.89° C | 68% | 1011 hPa | 0 mm | - | - | - |
| 1777500417 | 28.33° C | 72% | 1011.1 hPa | 0 mm | - | - | - |
| 1777500113 | 28.33° C | 72% | 1010.7 hPa | 0 mm | - | - | - |
| 1777499810 | 28.33° C | 72% | 1010.6 hPa | 0 mm | - | - | - |
| 1777499506 | 28.33° C | 72% | 1010.9 hPa | 0 mm | - | - | - |
| 1777498901 | 28.33° C | 71% | 1011 hPa | 0 mm | - | - | - |
| 1777498293 | 28.89° C | 70% | 1010.8 hPa | 0 mm | - | - | - |
| 1777497688 | 28.89° C | 69% | 1010.7 hPa | 0 mm | - | - | - |
| 1777497385 | 28.89° C | 69% | 1010.5 hPa | 0 mm | - | - | - |
| 1777495563 | 30° C | 66% | 1011.1 hPa | 0 mm | - | - | - |
| 1777492532 | 30.56° C | 66% | 1011.8 hPa | 0 mm | - | - | - |
| 1777492228 | 30° C | 65% | 1011.7 hPa | 0 mm | - | - | - |
| 1777487380 | 29.44° C | 70% | 1012.7 hPa | 0 mm | - | - | - |
| 1777486174 | 31.11° C | 66% | 1013 hPa | 0 mm | - | - | - |
| 1777484353 | 30° C | 70% | 1013.6 hPa | 0 mm | - | - | - |
| 1777484049 | 30° C | 71% | 1013.6 hPa | 0 mm | - | - | - |
| 1777483745 | 30.56° C | 68% | 1013.8 hPa | 0 mm | - | - | - |
| 1777483136 | 30° C | 70% | 1013.8 hPa | 0 mm | - | - | - |
| 1777482834 | 30° C | 71% | 1013.7 hPa | 0 mm | - | - | - |
* Rain latest hour (hover to see other rain measurements)
** Current wind speed in m/s (hover to see current wind gust speed)